createdAt,value
2022-11-19T00:01:27.148Z,0.30
2022-11-19T00:03:54.719Z,0.32
2022-11-19T00:06:23.919Z,0.50
2022-11-19T00:08:50.958Z,0.40
2022-11-19T00:11:44.556Z,0.50
2022-11-19T00:14:14.043Z,0.40
2022-11-19T00:16:44.189Z,0.40
2022-11-19T00:19:12.047Z,0.30
2022-11-19T00:21:39.214Z,0.47
2022-11-19T00:24:06.886Z,0.43
2022-11-19T00:26:34.467Z,0.40
2022-11-19T00:29:01.465Z,0.40
2022-11-19T00:31:28.402Z,0.30
2022-11-19T00:33:55.487Z,0.30
2022-11-19T00:36:23.119Z,0.43
2022-11-19T00:38:50.378Z,0.50
2022-11-19T00:41:17.384Z,0.50
2022-11-19T00:43:53.659Z,0.40
2022-11-19T00:46:26.583Z,0.30
2022-11-19T00:48:55.404Z,0.50
2022-11-19T00:51:24.566Z,0.50
2022-11-19T00:53:52.047Z,0.35
2022-11-19T00:56:21.230Z,0.40
2022-11-19T00:58:48.883Z,0.30
2022-11-19T01:01:18.117Z,0.40
2022-11-19T01:03:46.406Z,0.40
2022-11-19T01:06:18.831Z,0.30
2022-11-19T01:08:46.508Z,0.40
2022-11-19T01:11:16.589Z,0.47
2022-11-19T01:13:44.051Z,0.25
2022-11-19T01:16:14.386Z,0.30
2022-11-19T01:18:42.873Z,0.30
2022-11-19T01:21:11.397Z,0.40
2022-11-19T01:23:39.610Z,0.40
2022-11-19T01:26:07.029Z,0.38
2022-11-19T01:28:34.766Z,0.30
2022-11-19T01:31:10.241Z,0.30
2022-11-19T01:33:38.348Z,0.40
2022-11-19T01:36:08.403Z,0.40
2022-11-19T01:38:35.245Z,0.50
2022-11-19T01:41:02.731Z,0.30
2022-11-19T01:43:45.946Z,0.40
2022-11-19T01:46:18.092Z,0.45
2022-11-19T01:49:06.349Z,0.40
2022-11-19T01:51:38.500Z,0.30
2022-11-19T01:54:23.002Z,0.40
2022-11-19T01:56:50.026Z,0.50
2022-11-19T01:59:19.469Z,0.30
2022-11-19T02:01:46.775Z,0.30
2022-11-19T02:04:16.871Z,0.40
2022-11-19T02:06:45.687Z,0.30
2022-11-19T02:09:12.516Z,0.40
2022-11-19T02:12:16.581Z,0.32
2022-11-19T02:14:54.994Z,0.22
2022-11-19T02:18:06.361Z,0.40
2022-11-19T02:20:48.548Z,0.40
2022-11-19T02:23:30.696Z,0.30
2022-11-19T02:26:00.611Z,0.22
2022-11-19T02:28:45.912Z,0.40
2022-11-19T02:31:24.416Z,0.38
2022-11-19T02:34:04.804Z,0.25
2022-11-19T02:36:56.959Z,0.47
2022-11-19T02:39:23.749Z,0.40
2022-11-19T02:41:53.568Z,0.38
2022-11-19T02:44:43.836Z,0.40
2022-11-19T02:47:16.553Z,0.40
2022-11-19T02:49:45.396Z,0.30
2022-11-19T02:52:14.889Z,0.35
2022-11-19T02:54:42.083Z,0.30
2022-11-19T02:57:12.094Z,0.40
2022-11-19T03:00:06.484Z,0.47
2022-11-19T03:02:56.967Z,0.38
2022-11-19T03:05:27.203Z,0.40
2022-11-19T03:07:54.312Z,0.40
2022-11-19T03:10:25.505Z,0.30
2022-11-19T03:16:16.281Z,0.30
2022-11-19T03:18:55.523Z,0.35
2022-11-19T03:21:44.441Z,0.30
2022-11-19T03:24:20.773Z,0.40
2022-11-19T03:26:54.758Z,0.47
2022-11-19T03:29:25.369Z,0.52
2022-11-19T03:31:58.593Z,0.43
2022-11-19T03:34:29.073Z,0.40
2022-11-19T03:36:58.834Z,0.40
2022-11-19T03:39:26.023Z,0.60
2022-11-19T03:41:54.478Z,0.40
2022-11-19T03:44:37.113Z,0.40
2022-11-19T03:47:19.384Z,0.35
2022-11-19T03:49:51.114Z,0.40
2022-11-19T03:52:20.852Z,0.50
2022-11-19T03:54:48.162Z,0.45
2022-11-19T03:57:19.242Z,0.65
2022-11-19T03:59:47.478Z,0.55
2022-11-19T04:02:15.185Z,0.50
2022-11-19T04:04:42.483Z,0.50
2022-11-19T04:07:12.231Z,0.40
2022-11-19T04:09:40.393Z,0.47
2022-11-19T04:12:12.964Z,0.50
2022-11-19T04:14:39.843Z,0.50
2022-11-19T04:17:06.662Z,0.80
2022-11-19T04:19:33.518Z,0.40
2022-11-19T04:22:00.421Z,0.60
2022-11-19T04:24:27.247Z,0.57
2022-11-19T04:26:54.151Z,0.70
2022-11-19T04:29:21.242Z,0.50
2022-11-19T04:31:48.350Z,0.40
2022-11-19T04:34:15.350Z,0.60
2022-11-19T04:36:42.578Z,0.50
2022-11-19T04:39:11.171Z,0.73
2022-11-19T04:41:38.969Z,0.60
2022-11-19T04:44:05.945Z,0.60
2022-11-19T04:46:33.086Z,0.60
2022-11-19T04:48:59.955Z,0.50
2022-11-19T04:51:26.817Z,0.52
2022-11-19T04:53:54.930Z,0.60
2022-11-19T04:56:21.805Z,0.57
2022-11-19T04:58:48.654Z,0.50
2022-11-19T05:01:15.625Z,0.68
2022-11-19T05:03:42.635Z,0.65
2022-11-19T05:06:09.562Z,0.40
2022-11-19T05:08:36.439Z,0.70
2022-11-19T05:11:03.242Z,0.60
2022-11-19T05:13:30.074Z,0.43
2022-11-19T05:15:57.022Z,0.40
2022-11-19T05:18:24.639Z,0.60
2022-11-19T05:20:51.493Z,0.60
2022-11-19T05:23:18.373Z,0.50
2022-11-19T05:25:45.241Z,0.50
2022-11-19T05:28:12.109Z,0.73
2022-11-19T05:30:39.094Z,0.60
2022-11-19T05:33:05.969Z,0.60
2022-11-19T05:35:32.983Z,0.60
2022-11-19T05:37:59.873Z,0.50
2022-11-19T05:40:27.099Z,0.50
2022-11-19T05:42:54.006Z,0.73
2022-11-19T05:45:21.291Z,0.60
2022-11-19T05:47:48.938Z,0.57
2022-11-19T05:50:15.943Z,0.70
2022-11-19T05:52:42.745Z,0.70
2022-11-19T05:55:09.730Z,0.47
2022-11-19T05:57:37.329Z,0.60
2022-11-19T06:00:05.477Z,0.80
2022-11-19T06:02:32.309Z,0.60
2022-11-19T06:04:59.176Z,0.60
2022-11-19T06:07:26.061Z,0.60
2022-11-19T06:09:53.074Z,0.68
2022-11-19T06:12:20.040Z,0.47
2022-11-19T06:14:46.894Z,0.60
2022-11-19T06:17:13.809Z,0.70
2022-11-19T06:19:41.128Z,0.43
2022-11-19T06:22:07.977Z,0.68
2022-11-19T06:24:34.874Z,0.57
2022-11-19T06:27:01.858Z,0.40
2022-11-19T06:29:28.684Z,0.63
2022-11-19T06:31:55.497Z,0.45
2022-11-19T06:34:22.337Z,0.60
2022-11-19T06:36:50.773Z,0.60
2022-11-19T06:39:18.966Z,0.50
2022-11-19T06:41:48.997Z,0.63
2022-11-19T06:44:16.076Z,0.50
2022-11-19T06:46:43.114Z,0.65
2022-11-19T06:49:13.175Z,0.70
2022-11-19T06:51:42.402Z,0.50
2022-11-19T06:54:10.302Z,0.70
2022-11-19T06:56:37.140Z,0.68
2022-11-19T06:59:04.080Z,0.60
2022-11-19T07:01:31.041Z,0.60
2022-11-19T07:03:57.980Z,0.80
2022-11-19T07:06:24.778Z,0.80
2022-11-19T07:08:51.578Z,0.40
2022-11-19T07:11:36.649Z,0.60
2022-11-19T07:14:04.166Z,0.65
2022-11-19T07:16:33.885Z,0.50
2022-11-19T07:19:03.126Z,0.60
2022-11-19T07:21:30.561Z,0.65
2022-11-19T07:23:58.696Z,0.50
2022-11-19T07:26:26.469Z,0.50
2022-11-19T07:28:53.831Z,0.32
2022-11-19T07:31:20.978Z,0.50
2022-11-19T07:33:47.847Z,0.50
2022-11-19T07:36:18.410Z,0.50
2022-11-19T07:38:46.565Z,0.55
2022-11-19T07:41:32.528Z,0.57
2022-11-19T07:43:59.544Z,0.50
2022-11-19T07:46:26.477Z,0.43
2022-11-19T07:48:54.838Z,0.40
2022-11-19T07:51:22.578Z,0.57
2022-11-19T07:53:50.033Z,0.40
2022-11-19T07:56:17.359Z,0.60
2022-11-19T07:58:44.453Z,1.10
2022-11-19T08:01:14.744Z,0.75
2022-11-19T08:03:49.518Z,0.90
2022-11-19T08:06:21.026Z,0.50
2022-11-19T08:08:48.309Z,0.80
2022-11-19T08:11:16.761Z,0.70
2022-11-19T08:13:44.299Z,0.70
2022-11-19T08:16:14.255Z,0.50
2022-11-19T08:18:41.183Z,0.75
2022-11-19T08:21:12.241Z,0.60
2022-11-19T08:23:39.741Z,0.50
2022-11-19T08:26:08.017Z,0.43
2022-11-19T08:28:35.394Z,0.80
2022-11-19T08:31:09.561Z,0.90
2022-11-19T08:33:37.119Z,0.90
2022-11-19T08:36:04.457Z,0.57
2022-11-19T08:38:37.199Z,0.68
2022-11-19T08:41:24.450Z,0.52
2022-11-19T08:43:51.564Z,0.60
2022-11-19T08:46:18.666Z,0.60
2022-11-19T08:48:45.561Z,0.57
2022-11-19T08:51:15.068Z,0.50
2022-11-19T08:53:45.124Z,0.50
2022-11-19T08:56:16.837Z,0.50
2022-11-19T08:58:45.524Z,0.60
2022-11-19T09:01:14.586Z,0.47
2022-11-19T09:03:42.323Z,0.60
2022-11-19T09:06:09.831Z,0.60
2022-11-19T09:08:37.109Z,0.60
2022-11-19T09:11:08.134Z,0.50
2022-11-19T09:13:35.448Z,0.47
2022-11-19T09:16:03.112Z,0.50
2022-11-19T09:18:31.519Z,0.50
2022-11-19T09:20:59.117Z,0.60
2022-11-19T09:23:27.695Z,0.50
2022-11-19T09:26:03.017Z,0.60
2022-11-19T09:28:31.225Z,0.40
2022-11-19T09:31:18.048Z,0.60
2022-11-19T09:33:48.428Z,0.73
2022-11-19T09:36:16.229Z,0.50
2022-11-19T09:38:43.185Z,0.60
2022-11-19T09:41:35.420Z,3.95
2022-11-19T09:44:17.863Z,2.65
2022-11-19T09:47:22.139Z,2.38
2022-11-19T09:50:14.841Z,1.60
2022-11-19T09:52:47.868Z,1.17
2022-11-19T09:55:19.881Z,3.65
2022-11-19T09:57:52.132Z,3.80
2022-11-19T10:00:26.052Z,2.00
2022-11-19T10:02:54.304Z,2.33
2022-11-19T10:05:45.837Z,2.40
2022-11-19T10:08:31.754Z,2.00
2022-11-19T10:11:16.840Z,2.00
2022-11-19T10:14:10.238Z,2.53
2022-11-19T10:16:39.705Z,3.20
2022-11-19T10:19:06.741Z,6.20
2022-11-19T10:21:33.583Z,9.60
2022-11-19T10:24:06.616Z,6.75
2022-11-19T10:26:41.303Z,4.28
2022-11-19T10:29:25.230Z,7.60
2022-11-19T10:31:52.530Z,5.35
2022-11-19T10:34:27.996Z,5.20
2022-11-19T10:37:08.015Z,6.32
2022-11-19T10:39:40.351Z,4.93
2022-11-19T10:42:24.972Z,6.18
2022-11-19T10:44:58.004Z,8.52
2022-11-19T10:47:40.219Z,10.65
2022-11-19T10:50:11.251Z,8.93
2022-11-19T10:52:42.817Z,5.47
2022-11-19T10:55:34.724Z,7.53
2022-11-19T10:58:24.631Z,9.18
2022-11-19T11:00:56.032Z,6.82
2022-11-19T11:03:31.829Z,9.48
2022-11-19T11:06:06.765Z,6.43
2022-11-19T11:08:34.180Z,10.15
2022-11-19T11:11:01.624Z,7.43
2022-11-19T11:13:53.214Z,5.25
2022-11-19T11:16:42.587Z,5.00
2022-11-19T11:19:19.748Z,3.88
2022-11-19T11:21:52.441Z,3.63
2022-11-19T11:24:19.809Z,4.40
2022-11-19T11:26:46.898Z,3.80
2022-11-19T11:29:13.953Z,4.55
2022-11-19T11:31:46.368Z,4.38
2022-11-19T11:34:36.365Z,3.45
2022-11-19T11:37:06.890Z,3.10
2022-11-19T11:39:44.500Z,2.67
2022-11-19T11:42:17.434Z,2.47
2022-11-19T11:45:00.553Z,2.28
2022-11-19T11:47:31.503Z,1.98
2022-11-19T11:50:15.157Z,4.15
2022-11-19T11:52:46.720Z,2.05
2022-11-19T11:55:31.985Z,2.45
2022-11-19T11:58:32.060Z,3.08
2022-11-19T12:01:18.648Z,1.63
2022-11-19T12:03:57.231Z,1.67
2022-11-19T12:06:40.903Z,3.35
2022-11-19T12:09:34.171Z,1.08
2022-11-19T12:12:19.732Z,0.50
2022-11-19T12:15:20.738Z,0.80
2022-11-19T12:17:57.479Z,4.95
2022-11-19T12:20:39.828Z,1.98
2022-11-19T12:23:15.648Z,1.35
2022-11-19T12:26:18.132Z,1.83
2022-11-19T12:29:06.457Z,0.80
2022-11-19T12:31:33.355Z,2.47
2022-11-19T12:34:02.939Z,9.55
2022-11-19T12:36:44.276Z,8.32
2022-11-19T12:39:27.368Z,7.50
2022-11-19T12:42:23.570Z,8.68
2022-11-19T12:44:50.516Z,9.93
2022-11-19T12:47:32.756Z,9.30
2022-11-19T12:50:11.671Z,7.20
2022-11-19T12:53:27.721Z,5.85
2022-11-19T12:56:17.588Z,5.97
2022-11-19T12:59:10.689Z,4.65
2022-11-19T13:01:42.909Z,4.55
2022-11-19T13:04:41.065Z,3.90
2022-11-19T13:07:25.510Z,3.88
2022-11-19T13:10:02.100Z,3.03
2022-11-19T13:12:43.778Z,3.00
2022-11-19T13:15:25.143Z,3.53
2022-11-19T13:17:55.522Z,7.20
2022-11-19T13:20:33.433Z,4.30
2022-11-19T13:23:05.347Z,2.45
2022-11-19T13:25:37.236Z,3.80
2022-11-19T13:28:13.362Z,5.97
2022-11-19T13:30:42.992Z,1.67
2022-11-19T13:33:23.169Z,2.60
2022-11-19T13:36:03.832Z,0.80
2022-11-19T13:38:52.705Z,0.60
2022-11-19T13:41:30.395Z,0.50
2022-11-19T13:44:17.484Z,0.50
2022-11-19T13:47:00.304Z,1.20
2022-11-19T13:49:47.150Z,39.13
2022-11-19T13:52:35.300Z,27.45
2022-11-19T13:55:02.670Z,34.00
2022-11-19T13:57:44.614Z,32.17
2022-11-19T14:00:28.272Z,24.20
2022-11-19T14:03:22.003Z,21.20
2022-11-19T14:06:10.814Z,17.02
2022-11-19T14:09:18.256Z,15.45
2022-11-19T14:11:48.145Z,12.98
2022-11-19T14:14:48.413Z,11.85
2022-11-19T14:17:54.331Z,9.48
2022-11-19T14:21:01.123Z,8.57
2022-11-19T14:23:55.731Z,8.65
2022-11-19T14:26:41.012Z,7.40
2022-11-19T14:29:28.012Z,7.03
2022-11-19T14:32:01.280Z,7.47
2022-11-19T14:34:30.835Z,7.03
2022-11-19T14:37:01.143Z,6.75
2022-11-19T14:39:40.131Z,6.17
2022-11-19T14:42:14.214Z,5.68
2022-11-19T14:44:42.477Z,5.90
2022-11-19T14:47:18.509Z,5.40
2022-11-19T14:49:48.960Z,4.53
2022-11-19T14:52:22.117Z,5.15
2022-11-19T14:54:58.864Z,5.43
2022-11-19T14:57:38.886Z,4.93
2022-11-19T15:00:16.658Z,4.00
2022-11-19T15:02:48.699Z,3.90
2022-11-19T15:05:29.708Z,3.63
2022-11-19T15:08:19.986Z,3.22
2022-11-19T15:11:02.814Z,3.50
2022-11-19T15:13:34.591Z,3.00
2022-11-19T15:16:12.807Z,2.72
2022-11-19T15:18:42.599Z,2.38
2022-11-19T15:21:17.195Z,3.08
2022-11-19T15:23:59.728Z,3.10
2022-11-19T15:26:36.403Z,2.72
2022-11-19T15:29:15.851Z,2.80
2022-11-19T15:32:01.752Z,2.65
2022-11-19T15:35:10.488Z,1.73
2022-11-19T15:38:00.169Z,3.13
2022-11-19T15:40:30.733Z,3.13
2022-11-19T15:43:31.049Z,3.53
2022-11-19T15:46:06.386Z,4.35
2022-11-19T15:48:44.613Z,5.53
2022-11-19T15:51:15.434Z,4.65
2022-11-19T15:54:02.084Z,3.90
2022-11-19T15:56:33.748Z,3.47
2022-11-19T15:59:03.938Z,2.70
2022-11-19T16:01:35.000Z,2.40
2022-11-19T16:04:15.224Z,2.45
2022-11-19T16:06:49.788Z,2.50
2022-11-19T16:09:22.221Z,2.38
2022-11-19T16:12:08.586Z,2.95
2022-11-19T16:14:54.447Z,3.38
2022-11-19T16:17:34.933Z,2.15
2022-11-19T16:20:12.275Z,2.05
2022-11-19T16:22:41.721Z,5.72
2022-11-19T16:25:14.772Z,1.35
2022-11-19T16:27:43.653Z,1.30
2022-11-19T16:30:23.338Z,2.00
2022-11-19T16:32:52.629Z,2.17
2022-11-19T16:35:25.579Z,2.90
2022-11-19T16:37:55.952Z,3.03
2022-11-19T16:40:25.220Z,3.08
2022-11-19T16:42:59.332Z,2.72
2022-11-19T16:45:33.075Z,2.70
2022-11-19T16:48:03.866Z,2.80
2022-11-19T16:50:46.534Z,2.13
2022-11-19T16:53:47.931Z,2.00
2022-11-19T16:56:17.047Z,4.15
2022-11-19T16:58:47.822Z,3.38
2022-11-19T17:01:19.679Z,3.42
2022-11-19T17:03:49.459Z,3.05
2022-11-19T17:06:26.262Z,2.92
2022-11-19T17:09:01.902Z,2.58
2022-11-19T17:12:12.444Z,3.00
2022-11-19T17:14:40.823Z,2.50
2022-11-19T17:17:26.970Z,2.20
2022-11-19T17:19:56.862Z,2.28
2022-11-19T17:22:33.492Z,1.90
2022-11-19T17:25:04.262Z,1.70
2022-11-19T17:27:37.893Z,1.67
2022-11-19T17:30:26.323Z,1.70
2022-11-19T17:32:58.180Z,1.38
2022-11-19T17:35:36.841Z,1.48
2022-11-19T17:38:30.774Z,1.75
2022-11-19T17:41:05.644Z,1.45
2022-11-19T17:43:58.114Z,1.10
2022-11-19T17:46:28.772Z,1.25
2022-11-19T17:48:55.816Z,1.30
2022-11-19T17:51:26.149Z,1.00
2022-11-19T17:53:53.753Z,1.10
2022-11-19T17:56:30.248Z,1.20
2022-11-19T17:59:00.140Z,1.10
2022-11-19T18:01:27.731Z,1.00
2022-11-19T18:03:55.089Z,1.00
2022-11-19T18:06:22.333Z,1.00
2022-11-19T18:08:49.661Z,2.13
2022-11-19T18:11:23.581Z,1.63
2022-11-19T18:13:57.653Z,1.60
2022-11-19T18:16:27.607Z,1.20
2022-11-19T18:18:56.332Z,6.40
2022-11-19T18:21:28.979Z,10.48
2022-11-19T18:23:56.128Z,7.07
2022-11-19T18:26:24.079Z,7.93
2022-11-19T18:28:51.826Z,6.63
2022-11-19T18:31:27.200Z,4.68
2022-11-19T18:33:55.833Z,4.93
2022-11-19T18:36:24.539Z,4.40
2022-11-19T18:38:53.390Z,2.60
2022-11-19T18:41:20.842Z,2.90
2022-11-19T18:44:06.825Z,3.35
2022-11-19T18:46:34.902Z,2.70
2022-11-19T18:49:03.321Z,3.05
2022-11-19T18:51:33.211Z,2.83
2022-11-19T18:54:02.696Z,2.90
2022-11-19T18:56:29.777Z,2.78
2022-11-19T18:59:00.461Z,2.40
2022-11-19T19:01:33.205Z,2.50
2022-11-19T19:04:03.685Z,2.38
2022-11-19T19:06:32.379Z,2.05
2022-11-19T19:09:00.152Z,2.00
2022-11-19T19:11:47.740Z,1.85
2022-11-19T19:14:17.169Z,2.50
2022-11-19T19:16:44.325Z,2.08
2022-11-19T19:19:14.984Z,2.10
2022-11-19T19:21:43.203Z,1.92
2022-11-19T19:24:10.741Z,1.73
2022-11-19T19:26:38.189Z,2.03
2022-11-19T19:29:07.915Z,1.70
2022-11-19T19:31:36.584Z,1.90
2022-11-19T19:34:04.861Z,7.82
2022-11-19T19:36:36.381Z,2.75
2022-11-19T19:39:05.329Z,2.42
2022-11-19T19:41:33.008Z,1.75
2022-11-19T19:44:04.428Z,1.70
2022-11-19T19:46:33.777Z,7.28
2022-11-19T19:49:00.999Z,8.15
2022-11-19T19:51:30.824Z,6.32
2022-11-19T19:54:00.053Z,6.50
2022-11-19T19:56:32.322Z,4.03
2022-11-19T19:59:00.728Z,3.65
2022-11-19T20:01:35.550Z,2.90
2022-11-19T20:04:08.400Z,2.35
2022-11-19T20:06:43.939Z,2.30
2022-11-19T20:09:16.978Z,1.73
2022-11-19T20:11:44.724Z,2.20
2022-11-19T20:14:11.985Z,2.85
2022-11-19T20:16:41.414Z,2.40
2022-11-19T20:19:14.615Z,2.22
2022-11-19T20:21:42.316Z,2.40
2022-11-19T20:24:13.125Z,2.38
2022-11-19T20:26:42.677Z,2.15
2022-11-19T20:29:14.799Z,2.63
2022-11-19T20:31:47.395Z,3.03
2022-11-19T20:34:17.314Z,2.70
2022-11-19T20:36:44.822Z,2.80
2022-11-19T20:39:13.452Z,2.60
2022-11-19T20:41:59.540Z,1.80
2022-11-19T20:44:26.784Z,2.17
2022-11-19T20:47:02.873Z,1.73
2022-11-19T20:49:36.616Z,1.60
2022-11-19T20:52:04.161Z,1.73
2022-11-19T20:54:32.305Z,1.90
2022-11-19T20:57:00.684Z,1.50
2022-11-19T20:59:28.835Z,1.67
2022-11-19T21:01:57.502Z,1.88
2022-11-19T21:04:26.607Z,1.92
2022-11-19T21:06:57.485Z,1.50
2022-11-19T21:09:25.423Z,1.35
2022-11-19T21:11:53.021Z,1.42
2022-11-19T21:14:20.352Z,1.50
2022-11-19T21:16:49.376Z,1.40
2022-11-19T21:19:21.416Z,1.30
2022-11-19T21:21:48.973Z,1.20
2022-11-19T21:24:16.798Z,1.00
2022-11-19T21:26:46.869Z,1.40
2022-11-19T21:29:15.178Z,1.33
2022-11-19T21:31:44.675Z,1.40
2022-11-19T21:34:18.154Z,1.00
2022-11-19T21:36:48.752Z,1.33
2022-11-19T21:39:19.389Z,1.13
2022-11-19T21:41:47.214Z,1.10
2022-11-19T21:44:19.856Z,0.90
2022-11-19T21:46:48.623Z,0.95
2022-11-19T21:49:16.344Z,1.00
2022-11-19T21:51:44.310Z,1.02
2022-11-19T21:54:13.104Z,1.50
2022-11-19T21:56:41.698Z,1.10
2022-11-19T21:59:09.486Z,0.90
2022-11-19T22:01:37.363Z,1.00
2022-11-19T22:04:05.699Z,1.70
2022-11-19T22:06:33.293Z,1.17
2022-11-19T22:09:00.689Z,1.00
2022-11-19T22:11:31.237Z,1.20
2022-11-19T22:14:04.666Z,1.25
2022-11-19T22:16:34.377Z,1.23
2022-11-19T22:19:01.836Z,1.40
2022-11-19T22:21:32.169Z,1.70
2022-11-19T22:24:00.779Z,1.40
2022-11-19T22:26:28.336Z,1.40
2022-11-19T22:28:56.959Z,1.30
2022-11-19T22:31:25.492Z,1.30
2022-11-19T22:33:54.195Z,1.35
2022-11-19T22:36:23.364Z,1.30
2022-11-19T22:38:51.864Z,1.30
2022-11-19T22:41:20.929Z,1.30
2022-11-19T22:43:48.651Z,1.23
2022-11-19T22:46:16.340Z,1.63
2022-11-19T22:48:43.643Z,1.50
2022-11-19T22:51:18.223Z,1.60
2022-11-19T22:53:45.860Z,1.10
2022-11-19T22:56:15.854Z,1.63
2022-11-19T22:58:43.428Z,1.40
2022-11-19T23:01:24.471Z,1.50
2022-11-19T23:03:52.043Z,1.27
2022-11-19T23:06:19.676Z,1.23
2022-11-19T23:08:47.179Z,1.85
2022-11-19T23:11:16.464Z,1.60
2022-11-19T23:13:45.505Z,1.33
2022-11-19T23:16:16.324Z,1.40
2022-11-19T23:18:49.911Z,1.20
2022-11-19T23:21:21.038Z,1.52
2022-11-19T23:26:19.112Z,1.35
2022-11-19T23:28:46.374Z,1.30
2022-11-19T23:31:21.923Z,1.50
2022-11-19T23:33:54.463Z,1.70
2022-11-19T23:36:27.639Z,1.48
2022-11-19T23:38:54.859Z,1.52
2022-11-19T23:41:22.620Z,1.55
2022-11-19T23:43:51.570Z,1.30
2022-11-19T23:46:22.977Z,1.70
2022-11-19T23:48:51.514Z,1.48
2022-11-19T23:51:25.500Z,1.13
2022-11-19T23:53:53.534Z,1.65
2022-11-19T23:56:22.326Z,1.20
2022-11-19T23:58:49.951Z,1.27
